createdAt,value
2023-03-31T00:02:13.468Z,13.82
2023-03-31T00:04:46.238Z,13.95
2023-03-31T00:07:16.327Z,14.27
2023-03-31T00:09:46.245Z,12.68
2023-03-31T00:12:17.686Z,15.82
2023-03-31T00:14:44.405Z,9.60
2023-03-31T00:17:11.655Z,11.45
2023-03-31T00:19:40.201Z,12.70
2023-03-31T00:22:07.437Z,11.52
2023-03-31T00:24:34.979Z,10.70
2023-03-31T00:27:05.911Z,9.13
2023-03-31T00:29:33.678Z,11.85
2023-03-31T00:32:00.469Z,10.35
2023-03-31T00:34:27.824Z,11.63
2023-03-31T00:36:56.521Z,12.35
2023-03-31T00:39:24.776Z,9.07
2023-03-31T00:41:51.835Z,11.15
2023-03-31T00:44:25.444Z,12.20
2023-03-31T00:46:56.577Z,9.88
2023-03-31T00:49:31.487Z,8.38
2023-03-31T00:52:07.750Z,8.30
2023-03-31T00:54:37.186Z,11.90
2023-03-31T00:57:06.859Z,9.48
2023-03-31T00:59:38.291Z,8.65
2023-03-31T01:02:05.290Z,6.90
2023-03-31T01:04:39.564Z,6.43
2023-03-31T01:07:12.573Z,8.88
2023-03-31T01:09:39.733Z,8.00
2023-03-31T01:12:08.842Z,7.40
2023-03-31T01:14:35.954Z,6.22
2023-03-31T01:17:03.000Z,6.55
2023-03-31T01:20:01.644Z,11.10
2023-03-31T01:22:46.551Z,10.88
2023-03-31T01:25:39.667Z,6.38
2023-03-31T01:28:06.245Z,9.00
2023-03-31T01:30:45.928Z,6.63
2023-03-31T01:33:57.098Z,10.73
2023-03-31T01:36:26.451Z,5.97
2023-03-31T01:39:08.712Z,8.18
2023-03-31T01:42:08.848Z,9.07
2023-03-31T01:45:02.810Z,8.40
2023-03-31T01:47:52.080Z,8.82
2023-03-31T01:50:30.499Z,10.63
2023-03-31T01:53:05.677Z,8.57
2023-03-31T01:55:45.502Z,10.68
2023-03-31T01:58:23.558Z,8.57
2023-03-31T02:01:01.996Z,7.68
2023-03-31T02:03:34.482Z,7.22
2023-03-31T02:06:09.207Z,10.27
2023-03-31T02:08:44.076Z,10.23
2023-03-31T02:11:11.289Z,6.35
2023-03-31T02:13:44.601Z,6.32
2023-03-31T02:16:19.118Z,5.57
2023-03-31T02:18:50.071Z,7.00
2023-03-31T02:21:17.593Z,9.80
2023-03-31T02:23:45.803Z,9.38
2023-03-31T02:26:16.774Z,10.98
2023-03-31T02:28:43.614Z,8.15
2023-03-31T02:31:34.829Z,10.05
2023-03-31T02:34:02.989Z,9.63
2023-03-31T02:36:29.792Z,5.80
2023-03-31T02:39:21.724Z,3.53
2023-03-31T02:41:48.420Z,2.75
2023-03-31T02:44:16.950Z,5.00
2023-03-31T02:46:44.537Z,1.70
2023-03-31T02:49:12.817Z,3.17
2023-03-31T02:52:13.349Z,3.20
2023-03-31T02:54:59.877Z,1.38
2023-03-31T02:57:58.226Z,0.80
2023-03-31T03:00:42.772Z,1.10
2023-03-31T03:03:27.608Z,2.72
2023-03-31T03:06:32.972Z,0.80
2023-03-31T03:09:22.631Z,1.08
2023-03-31T03:11:58.324Z,1.20
2023-03-31T03:14:43.039Z,2.30
2023-03-31T03:17:20.722Z,3.72
2023-03-31T03:19:53.301Z,1.30
2023-03-31T03:22:20.675Z,3.53
2023-03-31T03:24:47.561Z,0.68
2023-03-31T03:27:14.213Z,1.30
2023-03-31T03:29:41.724Z,1.95
2023-03-31T03:32:09.842Z,0.90
2023-03-31T03:34:37.046Z,0.57
2023-03-31T03:37:03.631Z,1.45
2023-03-31T03:39:30.300Z,1.00
2023-03-31T03:41:56.866Z,0.40
2023-03-31T03:44:23.513Z,1.08
2023-03-31T03:46:50.081Z,1.98
2023-03-31T03:49:16.851Z,1.48
2023-03-31T03:51:43.520Z,3.53
2023-03-31T03:54:10.252Z,1.35
2023-03-31T03:56:36.869Z,5.55
2023-03-31T03:59:03.444Z,2.17
2023-03-31T04:01:30.021Z,2.13
2023-03-31T04:03:56.589Z,3.72
2023-03-31T04:06:23.253Z,3.05
2023-03-31T04:08:49.830Z,2.95
2023-03-31T04:11:19.358Z,3.38
2023-03-31T04:13:47.034Z,3.38
2023-03-31T04:16:14.446Z,2.88
2023-03-31T04:18:43.968Z,5.32
2023-03-31T04:21:15.248Z,7.93
2023-03-31T04:23:48.329Z,6.22
2023-03-31T04:26:16.891Z,5.78
2023-03-31T04:28:47.009Z,6.68
2023-03-31T04:31:27.172Z,4.10
2023-03-31T04:33:54.536Z,4.38
2023-03-31T04:36:22.065Z,6.85
2023-03-31T04:38:56.437Z,6.13
2023-03-31T04:41:24.576Z,6.82
2023-03-31T04:43:51.356Z,8.77
2023-03-31T04:46:18.159Z,4.60
2023-03-31T04:48:44.909Z,6.40
2023-03-31T04:51:11.756Z,8.23
2023-03-31T04:53:38.319Z,8.15
2023-03-31T04:56:06.084Z,6.07
2023-03-31T04:58:33.118Z,7.80
2023-03-31T05:00:59.711Z,7.45
2023-03-31T05:03:26.607Z,5.15
2023-03-31T05:05:53.326Z,3.28
2023-03-31T05:08:19.968Z,5.78
2023-03-31T05:10:46.539Z,5.53
2023-03-31T05:13:13.113Z,5.38
2023-03-31T05:15:40.290Z,4.55
2023-03-31T05:18:08.297Z,4.25
2023-03-31T05:20:34.974Z,7.43
2023-03-31T05:23:02.005Z,5.88
2023-03-31T05:25:32.812Z,6.53
2023-03-31T05:28:00.862Z,3.00
2023-03-31T05:30:28.082Z,6.03
2023-03-31T05:32:54.713Z,4.53
2023-03-31T05:35:21.542Z,8.50
2023-03-31T05:37:48.114Z,11.68
2023-03-31T05:40:14.863Z,6.07
2023-03-31T05:42:41.996Z,8.55
2023-03-31T05:45:09.540Z,6.05
2023-03-31T05:47:36.953Z,9.70
2023-03-31T05:50:07.854Z,10.52
2023-03-31T05:52:36.034Z,11.00
2023-03-31T05:55:03.253Z,11.30
2023-03-31T05:57:29.897Z,14.10
2023-03-31T05:59:56.611Z,11.40
2023-03-31T06:02:23.537Z,9.65
2023-03-31T06:04:50.384Z,13.68
2023-03-31T06:07:18.720Z,8.20
2023-03-31T06:09:46.288Z,11.63
2023-03-31T06:12:12.973Z,8.68
2023-03-31T06:14:39.518Z,12.57
2023-03-31T06:17:07.300Z,8.90
2023-03-31T06:19:34.052Z,4.93
2023-03-31T06:22:00.781Z,17.58
2023-03-31T06:24:27.345Z,19.50
2023-03-31T06:26:54.172Z,4.68
2023-03-31T06:29:20.854Z,7.18
2023-03-31T06:31:47.501Z,13.73
2023-03-31T06:34:14.421Z,12.73
2023-03-31T06:36:42.002Z,14.82
2023-03-31T06:39:08.810Z,14.40
2023-03-31T06:41:35.488Z,15.00
2023-03-31T06:44:02.047Z,31.00
2023-03-31T06:46:29.992Z,11.52
2023-03-31T06:48:56.667Z,8.20
2023-03-31T06:51:23.212Z,8.60
2023-03-31T06:53:49.776Z,3.90
2023-03-31T06:56:16.357Z,7.78
2023-03-31T06:58:43.185Z,7.22
2023-03-31T07:01:11.471Z,11.13
2023-03-31T07:03:38.435Z,3.80
2023-03-31T07:06:05.517Z,11.70
2023-03-31T07:08:32.439Z,6.28
2023-03-31T07:11:00.881Z,15.02
2023-03-31T07:13:28.339Z,10.52
2023-03-31T07:15:55.497Z,5.22
2023-03-31T07:18:25.938Z,8.38
2023-03-31T07:20:52.778Z,6.68
2023-03-31T07:23:20.873Z,8.32
2023-03-31T07:25:48.238Z,5.30
2023-03-31T07:28:15.381Z,10.75
2023-03-31T07:30:42.361Z,7.35
2023-03-31T07:33:09.718Z,8.65
2023-03-31T07:35:41.357Z,7.65
2023-03-31T07:38:10.829Z,7.35
2023-03-31T07:40:38.028Z,13.82
2023-03-31T07:43:04.643Z,5.32
2023-03-31T07:45:31.621Z,3.65
2023-03-31T07:47:58.237Z,6.28
2023-03-31T07:50:25.387Z,4.63
2023-03-31T07:52:52.304Z,9.70
2023-03-31T07:55:20.045Z,7.00
2023-03-31T07:57:47.635Z,3.55
2023-03-31T08:00:16.010Z,5.70
2023-03-31T08:02:43.878Z,6.95
2023-03-31T08:05:15.961Z,1.35
2023-03-31T08:07:45.697Z,3.15
2023-03-31T08:10:18.725Z,4.30
2023-03-31T08:12:45.726Z,3.05
2023-03-31T08:15:12.636Z,6.93
2023-03-31T08:17:39.848Z,8.65
2023-03-31T08:20:08.153Z,0.68
2023-03-31T08:22:35.073Z,8.80
2023-03-31T08:25:01.750Z,1.67
2023-03-31T08:27:28.597Z,1.95
2023-03-31T08:29:55.130Z,6.07
2023-03-31T08:32:25.058Z,1.23
2023-03-31T08:34:51.753Z,4.45
2023-03-31T08:37:18.702Z,9.13
2023-03-31T08:39:46.008Z,2.08
2023-03-31T08:42:39.206Z,5.93
2023-03-31T08:45:11.444Z,5.55
2023-03-31T08:47:40.321Z,1.83
2023-03-31T08:50:14.164Z,2.20
2023-03-31T08:52:56.800Z,5.30
2023-03-31T08:55:28.800Z,2.90
2023-03-31T08:58:19.198Z,3.95
2023-03-31T09:01:03.193Z,9.15
2023-03-31T09:03:58.383Z,6.05
2023-03-31T09:06:50.541Z,4.10
2023-03-31T09:09:29.347Z,3.03
2023-03-31T09:12:03.018Z,7.57
2023-03-31T09:14:50.767Z,2.17
2023-03-31T09:17:31.090Z,3.13
2023-03-31T09:20:07.973Z,1.55
2023-03-31T09:22:39.890Z,2.90
2023-03-31T09:25:18.908Z,8.18
2023-03-31T09:27:47.920Z,5.55
2023-03-31T09:30:32.195Z,2.53
2023-03-31T09:33:12.378Z,5.03
2023-03-31T09:35:39.168Z,3.83
2023-03-31T09:38:05.869Z,2.72
2023-03-31T09:40:33.026Z,5.75
2023-03-31T09:43:32.019Z,3.10
2023-03-31T09:46:09.196Z,1.77
2023-03-31T09:48:38.993Z,1.75
2023-03-31T09:51:10.245Z,2.25
2023-03-31T09:54:32.923Z,2.42
2023-03-31T09:56:59.642Z,4.20
2023-03-31T09:59:34.369Z,2.50
2023-03-31T10:02:05.639Z,3.47
2023-03-31T10:04:34.757Z,1.67
2023-03-31T10:07:04.759Z,2.17
2023-03-31T10:09:34.550Z,3.03
2023-03-31T10:12:15.053Z,4.00
2023-03-31T10:14:46.476Z,5.03
2023-03-31T10:17:22.273Z,2.83
2023-03-31T10:19:49.141Z,6.50
2023-03-31T10:22:37.069Z,3.50
2023-03-31T10:25:16.921Z,2.13
2023-03-31T10:27:47.548Z,5.57
2023-03-31T10:30:22.409Z,7.85
2023-03-31T10:32:52.555Z,3.55
2023-03-31T10:35:32.590Z,5.45
2023-03-31T10:38:07.529Z,7.18
2023-03-31T10:40:36.420Z,6.75
2023-03-31T10:43:11.315Z,3.78
2023-03-31T10:45:45.504Z,1.92
2023-03-31T10:48:22.193Z,3.47
2023-03-31T10:50:48.949Z,2.42
2023-03-31T10:53:17.448Z,3.67
2023-03-31T10:55:54.863Z,1.90
2023-03-31T10:58:54.949Z,2.90
2023-03-31T11:01:24.844Z,7.03
2023-03-31T11:04:19.456Z,4.93
2023-03-31T11:07:21.366Z,6.80
2023-03-31T11:10:30.435Z,2.42
2023-03-31T11:13:12.593Z,7.13
2023-03-31T11:15:51.196Z,2.50
2023-03-31T11:18:42.836Z,5.00
2023-03-31T11:21:27.989Z,1.40
2023-03-31T11:24:22.129Z,2.88
2023-03-31T11:27:01.732Z,2.63
2023-03-31T11:29:43.576Z,0.73
2023-03-31T11:32:38.137Z,1.70
2023-03-31T11:35:18.369Z,5.70
2023-03-31T11:38:17.639Z,1.95
2023-03-31T11:41:03.122Z,4.85
2023-03-31T11:43:39.388Z,5.95
2023-03-31T11:46:15.697Z,3.72
2023-03-31T11:48:47.770Z,5.05
2023-03-31T11:51:40.181Z,3.78
2023-03-31T11:54:12.360Z,0.55
2023-03-31T11:56:41.517Z,4.70
2023-03-31T11:59:14.910Z,2.30
2023-03-31T12:01:41.749Z,1.70
2023-03-31T12:04:14.043Z,2.38
2023-03-31T12:06:42.709Z,1.77
2023-03-31T12:09:30.519Z,2.05
2023-03-31T12:12:21.026Z,3.17
2023-03-31T12:15:03.367Z,2.70
2023-03-31T12:17:30.105Z,3.80
2023-03-31T12:20:02.284Z,2.70
2023-03-31T12:22:36.284Z,2.80
2023-03-31T12:25:03.016Z,2.30
2023-03-31T12:27:40.474Z,2.88
2023-03-31T12:30:07.528Z,3.55
2023-03-31T12:32:39.374Z,2.83
2023-03-31T12:35:22.106Z,1.88
2023-03-31T12:38:09.559Z,3.80
2023-03-31T12:40:55.214Z,1.42
2023-03-31T12:43:52.496Z,1.02
2023-03-31T12:46:34.356Z,0.93
2023-03-31T12:49:03.788Z,0.43
2023-03-31T12:52:04.373Z,1.33
2023-03-31T12:54:55.541Z,4.78
2023-03-31T12:57:25.044Z,2.50
2023-03-31T13:00:19.766Z,1.17
2023-03-31T13:02:46.957Z,1.85
2023-03-31T13:05:38.416Z,3.95
2023-03-31T13:08:09.443Z,1.17
2023-03-31T13:10:57.997Z,3.25
2023-03-31T13:13:25.939Z,4.75
2023-03-31T13:15:57.973Z,0.50
2023-03-31T13:18:24.933Z,2.38
2023-03-31T13:21:06.323Z,4.55
2023-03-31T13:23:37.516Z,3.72
2023-03-31T13:26:04.616Z,3.70
2023-03-31T13:28:44.843Z,4.22
2023-03-31T13:31:14.323Z,1.05
2023-03-31T13:33:57.406Z,1.65
2023-03-31T13:36:48.572Z,0.88
2023-03-31T13:39:33.407Z,3.75
2023-03-31T13:42:03.780Z,6.68
2023-03-31T13:44:51.108Z,4.88
2023-03-31T13:47:36.245Z,4.80
2023-03-31T13:50:23.869Z,0.63
2023-03-31T13:53:00.241Z,0.95
2023-03-31T13:56:04.452Z,6.50
2023-03-31T13:59:01.874Z,2.67
2023-03-31T14:01:42.249Z,4.13
2023-03-31T14:04:21.019Z,7.93
2023-03-31T14:06:53.684Z,0.95
2023-03-31T14:09:52.240Z,1.23
2023-03-31T14:12:39.060Z,0.57
2023-03-31T14:15:07.302Z,2.80
2023-03-31T14:17:41.295Z,2.90
2023-03-31T14:20:21.422Z,0.93
2023-03-31T14:23:02.427Z,1.52
2023-03-31T14:25:50.848Z,2.15
2023-03-31T14:28:42.578Z,2.78
2023-03-31T14:31:38.450Z,3.40
2023-03-31T14:34:14.216Z,1.40
2023-03-31T14:37:03.636Z,2.70
2023-03-31T14:39:41.246Z,1.38
2023-03-31T14:42:19.811Z,2.28
2023-03-31T14:44:48.719Z,1.35
2023-03-31T14:47:28.640Z,3.80
2023-03-31T14:50:01.539Z,3.50
2023-03-31T14:52:32.332Z,2.50
2023-03-31T14:54:59.993Z,4.80
2023-03-31T14:57:33.040Z,1.42
2023-03-31T15:00:05.009Z,0.98
2023-03-31T15:02:35.093Z,2.80
2023-03-31T15:05:08.214Z,0.65
2023-03-31T15:07:36.182Z,7.30
2023-03-31T15:10:06.550Z,2.95
2023-03-31T15:12:33.989Z,2.97
2023-03-31T15:15:06.828Z,1.73
2023-03-31T15:17:41.384Z,5.60
2023-03-31T15:20:26.079Z,1.85
2023-03-31T15:22:52.887Z,3.00
2023-03-31T15:25:20.781Z,1.35
2023-03-31T15:28:02.146Z,2.95
2023-03-31T15:30:29.776Z,6.38
2023-03-31T15:33:04.337Z,1.80
2023-03-31T15:35:42.512Z,3.53
2023-03-31T15:38:16.346Z,3.15
2023-03-31T15:40:44.235Z,3.05
2023-03-31T15:43:24.350Z,3.05
2023-03-31T15:45:57.735Z,3.28
2023-03-31T15:48:24.388Z,1.25
2023-03-31T15:50:51.864Z,0.88
2023-03-31T15:53:27.557Z,2.63
2023-03-31T15:55:57.034Z,2.03
2023-03-31T15:58:27.082Z,3.88
2023-03-31T16:01:01.650Z,6.53
2023-03-31T16:03:38.737Z,3.35
2023-03-31T16:06:19.361Z,1.98
2023-03-31T16:09:12.747Z,2.60
2023-03-31T16:11:50.588Z,2.83
2023-03-31T16:14:33.464Z,2.00
2023-03-31T16:17:07.387Z,2.05
2023-03-31T16:19:46.117Z,1.63
2023-03-31T16:22:22.431Z,7.40
2023-03-31T16:24:50.340Z,1.27
2023-03-31T16:27:17.302Z,1.20
2023-03-31T16:29:43.929Z,1.23
2023-03-31T16:32:21.022Z,3.25
2023-03-31T16:34:59.334Z,3.60
2023-03-31T16:37:26.371Z,4.00
2023-03-31T16:39:53.547Z,8.95
2023-03-31T16:42:20.951Z,3.67
2023-03-31T16:44:59.960Z,1.45
2023-03-31T16:47:36.263Z,3.75
2023-03-31T16:50:07.796Z,7.05
2023-03-31T16:52:35.053Z,6.90
2023-03-31T16:55:01.927Z,3.40
2023-03-31T16:57:28.782Z,5.15
2023-03-31T16:59:57.423Z,3.55
2023-03-31T17:02:25.620Z,8.13
2023-03-31T17:04:54.217Z,8.60
2023-03-31T17:07:23.254Z,7.13
2023-03-31T17:09:49.808Z,6.05
2023-03-31T17:12:16.475Z,7.53
2023-03-31T17:14:42.993Z,7.47
2023-03-31T17:17:09.615Z,11.13
2023-03-31T17:19:36.277Z,6.55
2023-03-31T17:22:03.626Z,21.20
2023-03-31T17:24:30.340Z,9.02
2023-03-31T17:26:57.685Z,11.15
2023-03-31T17:29:24.848Z,13.52
2023-03-31T17:31:51.550Z,3.85
2023-03-31T17:34:18.276Z,10.98
2023-03-31T17:36:45.214Z,9.00
2023-03-31T17:39:12.123Z,10.50
2023-03-31T17:41:38.753Z,8.35
2023-03-31T17:44:07.850Z,7.93
2023-03-31T17:46:35.770Z,9.00
2023-03-31T17:49:02.393Z,9.32
2023-03-31T17:51:29.276Z,17.40
2023-03-31T17:53:56.380Z,10.00
2023-03-31T17:56:23.877Z,5.25
2023-03-31T17:58:51.141Z,8.88
2023-03-31T18:01:17.811Z,8.40
2023-03-31T18:03:46.243Z,8.63
2023-03-31T18:06:14.412Z,6.45
2023-03-31T18:08:41.951Z,11.02
2023-03-31T18:11:09.315Z,8.30
2023-03-31T18:13:37.276Z,8.27
2023-03-31T18:16:05.202Z,8.35
2023-03-31T18:18:32.682Z,10.88
2023-03-31T18:21:04.448Z,11.88
2023-03-31T18:23:32.105Z,11.63
2023-03-31T18:25:58.736Z,21.00
2023-03-31T18:28:25.433Z,12.45
2023-03-31T18:30:53.355Z,18.75
2023-03-31T18:33:20.383Z,12.75
2023-03-31T18:35:47.153Z,10.15
2023-03-31T18:38:14.248Z,15.25
2023-03-31T18:40:47.869Z,6.78
2023-03-31T18:43:14.419Z,5.65
2023-03-31T18:45:42.201Z,8.05
2023-03-31T18:48:08.777Z,11.48
2023-03-31T18:50:35.347Z,16.35
2023-03-31T18:53:03.479Z,13.02
2023-03-31T18:55:30.366Z,16.45
2023-03-31T18:57:58.024Z,10.30
2023-03-31T19:00:24.603Z,14.65
2023-03-31T19:02:51.487Z,13.48
2023-03-31T19:05:18.135Z,16.17
2023-03-31T19:07:44.684Z,17.63
2023-03-31T19:10:11.458Z,20.55
2023-03-31T19:12:38.086Z,12.77
2023-03-31T19:15:05.685Z,14.50
2023-03-31T19:17:32.259Z,10.63
2023-03-31T19:19:58.878Z,8.68
2023-03-31T19:22:27.664Z,19.20
2023-03-31T19:24:54.239Z,15.02
2023-03-31T19:27:21.203Z,28.17
2023-03-31T19:29:47.846Z,28.85
2023-03-31T19:32:14.536Z,30.45
2023-03-31T19:34:41.247Z,28.02
2023-03-31T19:37:07.836Z,31.17
2023-03-31T19:39:34.585Z,25.10
2023-03-31T19:42:02.239Z,32.28
2023-03-31T19:44:29.493Z,28.77
2023-03-31T19:46:56.265Z,31.83
2023-03-31T19:49:23.013Z,33.42
2023-03-31T19:51:49.712Z,27.60
2023-03-31T19:54:17.436Z,24.52
2023-03-31T19:56:44.100Z,28.75
2023-03-31T19:59:11.011Z,25.02
2023-03-31T20:01:37.754Z,13.38
2023-03-31T20:04:04.736Z,14.98
2023-03-31T20:06:34.017Z,16.60
2023-03-31T20:09:02.199Z,20.35
2023-03-31T20:11:32.071Z,18.30
2023-03-31T20:13:59.650Z,16.65
2023-03-31T20:16:28.326Z,20.52
2023-03-31T20:18:58.502Z,17.98
2023-03-31T20:21:28.497Z,16.05
2023-03-31T20:23:55.461Z,16.60
2023-03-31T20:26:25.109Z,19.38
2023-03-31T20:28:53.289Z,18.55
2023-03-31T20:31:23.102Z,17.48
2023-03-31T20:33:51.695Z,16.20
2023-03-31T20:36:20.934Z,17.83
2023-03-31T20:38:51.340Z,19.75
2023-03-31T20:41:20.827Z,16.20
2023-03-31T20:43:48.274Z,17.40
2023-03-31T20:46:15.299Z,17.35
2023-03-31T20:48:46.556Z,12.93
2023-03-31T20:51:16.461Z,16.40
2023-03-31T20:53:47.620Z,17.95
2023-03-31T20:56:15.858Z,14.00
2023-03-31T20:58:44.409Z,14.77
2023-03-31T21:01:12.544Z,14.18
2023-03-31T21:03:39.902Z,16.35
2023-03-31T21:06:15.031Z,14.18
2023-03-31T21:08:45.453Z,18.80
2023-03-31T21:11:14.034Z,22.98
2023-03-31T21:13:41.026Z,19.63
2023-03-31T21:16:07.776Z,13.55
2023-03-31T21:18:37.400Z,10.38
2023-03-31T21:21:06.995Z,12.80
2023-03-31T21:23:33.772Z,12.07
2023-03-31T21:26:02.682Z,11.32
2023-03-31T21:28:32.033Z,12.82
2023-03-31T21:31:05.680Z,13.63
2023-03-31T21:33:34.129Z,16.67
2023-03-31T21:36:01.281Z,12.07
2023-03-31T21:38:28.653Z,12.68
2023-03-31T21:40:57.981Z,17.20
2023-03-31T21:43:25.974Z,15.05
2023-03-31T21:45:57.231Z,16.13
2023-03-31T21:48:25.437Z,16.88
2023-03-31T21:50:54.816Z,16.02
2023-03-31T21:53:22.921Z,17.80
2023-03-31T21:55:56.398Z,15.43
2023-03-31T21:58:26.614Z,16.98
2023-03-31T22:00:55.788Z,16.30
2023-03-31T22:03:27.745Z,16.33
2023-03-31T22:05:56.098Z,12.85
2023-03-31T22:08:22.775Z,14.80
2023-03-31T22:10:51.949Z,12.73
2023-03-31T22:13:19.777Z,14.75
2023-03-31T22:15:46.735Z,14.85
2023-03-31T22:18:13.451Z,11.75
2023-03-31T22:20:40.904Z,12.00
2023-03-31T22:23:07.577Z,11.80
2023-03-31T22:25:34.877Z,14.35
2023-03-31T22:28:02.423Z,13.00
2023-03-31T22:30:30.146Z,13.45
2023-03-31T22:32:56.720Z,12.70
2023-03-31T22:35:23.751Z,8.52
2023-03-31T22:37:50.764Z,21.95
2023-03-31T22:40:17.712Z,15.98
2023-03-31T22:42:44.294Z,15.95
2023-03-31T22:45:11.304Z,13.50
2023-03-31T22:47:37.976Z,11.82
2023-03-31T22:50:04.933Z,16.30
2023-03-31T22:52:31.605Z,11.85
2023-03-31T22:54:58.137Z,16.02
2023-03-31T22:57:25.308Z,7.78
2023-03-31T22:59:51.948Z,13.60
2023-03-31T23:02:18.542Z,15.18
2023-03-31T23:04:45.153Z,16.60
2023-03-31T23:07:11.762Z,16.33
2023-03-31T23:09:38.301Z,17.90
2023-03-31T23:12:04.956Z,14.65
2023-03-31T23:14:32.134Z,19.90
2023-03-31T23:16:58.792Z,10.93
2023-03-31T23:19:25.440Z,16.08
2023-03-31T23:21:52.537Z,13.85
2023-03-31T23:24:21.214Z,16.75
2023-03-31T23:26:47.795Z,15.20
2023-03-31T23:29:14.608Z,16.35
2023-03-31T23:31:41.208Z,13.48
2023-03-31T23:34:07.951Z,13.88
2023-03-31T23:36:34.532Z,4.05
2023-03-31T23:39:01.070Z,15.55
2023-03-31T23:41:27.748Z,13.07
2023-03-31T23:43:55.902Z,19.85
2023-03-31T23:46:24.382Z,21.75
2023-03-31T23:48:51.877Z,24.98
2023-03-31T23:51:18.819Z,19.08
2023-03-31T23:53:45.405Z,24.27
2023-03-31T23:56:13.615Z,25.88
2023-03-31T23:58:42.934Z,25.45
